map of OLB home
OLB - Airport
Location
City:  Olbia, Sardinia, Italy
Name:Costa Smeralda
ICAO:LIEO
IATA:OLB

Details
Type:Airport (Aerodrome, Airfield)
Use:Public/Civil, International (customs port of entry)
Latitude:4053'55"N (40.898661)
Longitude:931'03"E (9.517628)
Datum:other
Elevation:37 ft (11 m)
Variation:2.46E (WMM2015 magnetic declination)
0.10 annual change
Runways:1
Longest:8025 × 148 ft (2446 × 45 m), paved

Time
Time Zone:UTC+1 (DST+2)
Local Time:

Weather
METAR:LIEO 241920Z 22005KT 9999 FEW020 BKN040 10/06 Q1006
TAF:LIEO 241700Z 2418/2518 26015KT 9999 SCT030
TEMPO 2418/2421 4000 RA
TEMPO 2509/2518 4000 RA
BECMG 2510/2512 34013KT

Related Locations
Nearby:
Farthest:CHT: 12072 mi / 19428 km
Waitangi [Tuuta], CIT, NZ

Find:

   beyond  
but within

Other Information
Maps:
NOTAMs:
Links:
Sources:

  
flag of Italy
flag of Sardinia
  

Airport Diagram

Airport diagram for OLB

Larger airport diagram (OBSOLETE) from NGA

Sectional Chart

Flight Planning
at skyvector.com

Satellite Image

Google Maps Satellite view

 

Copyright © 2004-2018 Karl L. Swartz. All rights reserved.
The Great Circle Mapper name and logo are trademarks of the Great Circle Mapper.
All other trademarks mentioned herein belong to their respective owners.
Please see credits for attibutions and further copyright information.

  Follow gcmap on Facebook Follow gcmap on Twitter Follow gcmap on Google+ GCmap on LinkedIn

hCard Microformat

Geo Microformat